Terminal Aerodrome Forecast
Issued by NWS

Home | Current Version | Previous Version | Text Only | Print | Product List | Glossary On
Versions: 1 2 3 4 5 6 7 8 9 10 11 12 13 14 15 16 17
000
FTUS42 KMLB 220542
TAFSUA
TAF
KSUA 220542Z 2206/2306 VRB03KT P6SM SCT250
     FM220900 26003KT 5SM BR SCT010 BKN015
      TEMPO 2210/2214 2SM BR BKN010
     FM221400 31006KT P6SM FEW015 SCT035 BKN250
     FM221800 03010KT P6SM SCT035=

USA.gov is the U.S. government's official web portal to all federal, state and local government web resources and services.